Terminal Aerodrome Forecast
Issued by NWS Northern Indiana

Home | Current Version | Previous Version | Text Only | Print | Product List | Glossary On
Versions: 1 2 3 4 5 6 7 8 9 10 11 12 13 14 15 16
959
FTUS43 KIWX 131136
TAFFWA
TAF
KFWA 131136Z 1312/1412 29008KT P6SM SCT040
     FM131400 31012KT P6SM VCSH BKN035
     FM132200 28007KT P6SM SCT050
     FM140400 VRB03KT P6SM SCT250=

USA.gov is the U.S. government's official web portal to all federal, state and local government web resources and services.